createdAt,value
2022-08-20T00:00:23.085Z,3.31
2022-08-20T00:01:25.948Z,3.40
2022-08-20T00:02:28.608Z,3.45
2022-08-20T00:04:43.517Z,3.69
2022-08-20T00:05:47.576Z,3.39
2022-08-20T00:06:50.244Z,3.47
2022-08-20T00:07:52.821Z,3.32
2022-08-20T00:08:55.413Z,3.43
2022-08-20T00:09:57.967Z,3.77
2022-08-20T00:11:01.109Z,3.73
2022-08-20T00:13:18.162Z,3.98
2022-08-20T00:14:20.796Z,3.38
2022-08-20T00:15:25.149Z,3.41
2022-08-20T00:16:30.622Z,3.86
2022-08-20T00:17:33.194Z,3.41
2022-08-20T00:18:35.650Z,3.68
2022-08-20T00:19:38.222Z,3.29
2022-08-20T00:20:42.871Z,3.28
2022-08-20T00:21:45.576Z,4.29
2022-08-20T00:22:49.445Z,4.02
2022-08-20T00:23:52.323Z,4.63
2022-08-20T00:24:54.993Z,4.90
2022-08-20T00:25:57.588Z,4.16
2022-08-20T00:27:00.339Z,3.82
2022-08-20T00:28:03.546Z,3.89
2022-08-20T00:29:06.046Z,4.09
2022-08-20T00:30:10.158Z,3.71
2022-08-20T00:31:13.146Z,3.92
2022-08-20T00:32:15.814Z,4.12
2022-08-20T00:33:19.526Z,3.97
2022-08-20T00:34:21.981Z,3.41
2022-08-20T00:35:25.555Z,3.49
2022-08-20T00:36:32.251Z,3.86
2022-08-20T00:37:32.817Z,3.97
2022-08-20T00:38:39.457Z,3.87
2022-08-20T00:39:42.561Z,3.44
2022-08-20T00:40:48.485Z,3.90
2022-08-20T00:41:51.093Z,3.68
2022-08-20T00:42:55.557Z,4.04
2022-08-20T00:44:09.160Z,3.49
2022-08-20T00:45:11.863Z,3.32
2022-08-20T00:46:18.358Z,3.30
2022-08-20T00:47:20.829Z,3.48
2022-08-20T00:48:28.088Z,3.60
2022-08-20T00:49:30.936Z,4.12
2022-08-20T00:50:35.707Z,3.68
2022-08-20T00:51:39.463Z,3.42
2022-08-20T00:52:42.158Z,3.71
2022-08-20T00:53:46.419Z,3.65
2022-08-20T00:54:57.009Z,3.59
2022-08-20T00:55:59.544Z,3.67
2022-08-20T00:58:15.533Z,3.86
2022-08-20T00:59:19.990Z,3.95
2022-08-20T01:00:25.619Z,3.39
2022-08-20T01:01:28.352Z,3.81
2022-08-20T01:02:31.295Z,3.80
2022-08-20T01:03:33.847Z,3.71
2022-08-20T01:04:36.493Z,3.79
2022-08-20T01:05:39.864Z,3.71
2022-08-20T01:06:42.954Z,3.71
2022-08-20T01:07:45.514Z,4.04
2022-08-20T01:08:47.961Z,3.52
2022-08-20T01:09:58.467Z,4.08
2022-08-20T01:10:55.115Z,3.86
2022-08-20T01:11:57.575Z,3.92
2022-08-20T01:13:00.022Z,3.37
2022-08-20T01:14:04.491Z,3.49
2022-08-20T01:15:07.653Z,3.50
2022-08-20T01:17:23.669Z,4.36
2022-08-20T01:18:26.408Z,4.45
2022-08-20T01:19:36.142Z,3.79
2022-08-20T01:20:41.142Z,3.98
2022-08-20T01:21:49.315Z,4.05
2022-08-20T01:23:08.982Z,3.55
2022-08-20T01:24:26.417Z,3.59
2022-08-20T01:26:42.094Z,3.91
2022-08-20T01:27:44.790Z,3.87
2022-08-20T01:28:50.530Z,3.89
2022-08-20T01:29:53.125Z,4.18
2022-08-20T01:30:55.880Z,3.66
2022-08-20T01:31:58.382Z,4.40
2022-08-20T01:33:03.279Z,3.80
2022-08-20T01:34:06.839Z,4.34
2022-08-20T01:35:09.412Z,4.36
2022-08-20T01:36:12.894Z,3.95
2022-08-20T01:37:15.319Z,4.37
2022-08-20T01:38:17.770Z,4.05
2022-08-20T01:40:37.713Z,4.22
2022-08-20T01:41:59.006Z,3.81
2022-08-20T01:43:01.698Z,4.02
2022-08-20T01:44:04.604Z,4.01
2022-08-20T01:45:07.491Z,4.41
2022-08-20T01:46:10.667Z,3.86
2022-08-20T01:47:16.011Z,4.26
2022-08-20T01:48:18.961Z,4.07
2022-08-20T01:49:23.501Z,4.12
2022-08-20T01:50:28.924Z,3.84
2022-08-20T01:51:31.457Z,3.94
2022-08-20T01:52:44.940Z,3.77
2022-08-20T01:53:49.332Z,4.29
2022-08-20T01:54:51.920Z,4.26
2022-08-20T01:55:54.410Z,4.39
2022-08-20T01:56:59.278Z,4.08
2022-08-20T01:58:01.874Z,4.34
2022-08-20T01:59:04.640Z,4.45
2022-08-20T02:00:08.833Z,4.19
2022-08-20T02:02:34.549Z,4.39
2022-08-20T02:03:44.072Z,4.79
2022-08-20T02:04:42.590Z,4.14
2022-08-20T02:05:45.151Z,4.04
2022-08-20T02:06:56.156Z,4.57
2022-08-20T02:07:54.442Z,4.51
2022-08-20T02:08:58.022Z,4.28
2022-08-20T02:10:00.503Z,4.51
2022-08-20T02:11:05.219Z,4.59
2022-08-20T02:12:08.197Z,4.17
2022-08-20T02:13:10.654Z,3.99
2022-08-20T02:14:13.310Z,4.95
2022-08-20T02:15:15.888Z,4.27
2022-08-20T02:16:21.567Z,4.26
2022-08-20T02:17:24.421Z,4.53
2022-08-20T02:18:26.988Z,4.46
2022-08-20T02:19:31.449Z,4.24
2022-08-20T02:20:34.554Z,4.77
2022-08-20T02:21:37.918Z,4.13
2022-08-20T02:22:50.025Z,4.56
2022-08-20T02:23:52.044Z,4.42
2022-08-20T02:24:54.602Z,4.44
2022-08-20T02:25:57.060Z,4.21
2022-08-20T02:26:59.943Z,3.58
2022-08-20T02:28:04.420Z,4.01
2022-08-20T02:29:07.430Z,4.17
2022-08-20T02:31:22.533Z,4.53
2022-08-20T02:32:33.913Z,4.47
2022-08-20T02:33:29.270Z,4.72
2022-08-20T02:34:31.998Z,4.81
2022-08-20T02:35:34.461Z,4.57
2022-08-20T02:36:37.627Z,4.83
2022-08-20T02:37:40.988Z,4.61
2022-08-20T02:38:43.868Z,4.47
2022-08-20T02:39:46.488Z,4.63
2022-08-20T02:40:50.492Z,4.78
2022-08-20T02:41:53.214Z,4.86
2022-08-20T02:42:55.682Z,4.51
2022-08-20T02:43:58.655Z,4.71
2022-08-20T02:45:01.277Z,4.67
2022-08-20T02:46:04.636Z,4.59
2022-08-20T02:47:09.215Z,4.67
2022-08-20T02:48:12.545Z,4.59
2022-08-20T02:49:15.845Z,4.42
2022-08-20T02:50:19.541Z,4.86
2022-08-20T02:51:30.459Z,4.53
2022-08-20T02:52:26.597Z,5.17
2022-08-20T02:53:29.741Z,4.95
2022-08-20T02:54:32.189Z,4.72
2022-08-20T02:55:34.862Z,5.26
2022-08-20T02:56:39.573Z,5.26
2022-08-20T02:57:42.242Z,6.30
2022-08-20T02:58:44.781Z,5.55
2022-08-20T02:59:47.346Z,5.46
2022-08-20T03:00:52.258Z,5.86
2022-08-20T03:01:55.869Z,5.39
2022-08-20T03:03:00.106Z,5.20
2022-08-20T03:04:03.174Z,5.27
2022-08-20T03:05:06.276Z,5.52
2022-08-20T03:06:09.262Z,5.22
2022-08-20T03:07:11.889Z,5.03
2022-08-20T03:08:14.506Z,7.88
2022-08-20T03:09:17.060Z,8.27
2022-08-20T03:10:25.577Z,6.10
2022-08-20T03:11:28.264Z,6.03
2022-08-20T03:12:30.950Z,5.52
2022-08-20T03:13:33.729Z,5.82
2022-08-20T03:14:38.279Z,5.65
2022-08-20T03:15:41.873Z,5.03
2022-08-20T03:16:44.650Z,5.71
2022-08-20T03:17:47.257Z,5.11
2022-08-20T03:18:52.009Z,5.45
2022-08-20T03:19:54.123Z,5.48
2022-08-20T03:20:58.723Z,5.74
2022-08-20T03:22:01.155Z,6.00
2022-08-20T03:23:03.809Z,6.05
2022-08-20T03:24:06.479Z,6.11
2022-08-20T03:25:09.644Z,5.81
2022-08-20T03:26:13.007Z,6.68
2022-08-20T03:27:15.694Z,6.39
2022-08-20T03:28:18.263Z,6.49
2022-08-20T03:29:20.846Z,6.64
2022-08-20T03:31:41.514Z,5.85
2022-08-20T03:32:44.080Z,6.01
2022-08-20T03:33:52.633Z,5.93
2022-08-20T03:34:51.023Z,6.08
2022-08-20T03:35:53.750Z,5.92
2022-08-20T03:36:56.457Z,5.59
2022-08-20T03:37:59.036Z,4.89
2022-08-20T03:39:02.907Z,4.89
2022-08-20T03:40:06.804Z,4.84
2022-08-20T03:41:09.382Z,5.06
2022-08-20T03:42:13.857Z,4.95
2022-08-20T03:43:16.758Z,4.62
2022-08-20T03:44:19.631Z,4.84
2022-08-20T03:45:22.296Z,5.22
2022-08-20T03:46:25.773Z,4.72
2022-08-20T03:47:28.337Z,4.44
2022-08-20T03:48:30.801Z,4.57
2022-08-20T03:49:33.662Z,5.03
2022-08-20T03:50:36.530Z,4.76
2022-08-20T03:51:57.144Z,5.78
2022-08-20T03:52:43.361Z,4.85
2022-08-20T03:53:45.944Z,5.01
2022-08-20T03:54:48.399Z,4.82
2022-08-20T03:55:54.352Z,4.46
2022-08-20T03:56:55.580Z,5.16
2022-08-20T03:57:59.435Z,4.98
2022-08-20T03:59:02.010Z,4.72
2022-08-20T04:00:05.332Z,4.56
2022-08-20T04:01:07.996Z,4.77
2022-08-20T04:02:12.394Z,4.42
2022-08-20T04:03:15.080Z,4.49
2022-08-20T04:04:17.690Z,4.65
2022-08-20T04:05:20.249Z,5.04
2022-08-20T04:06:23.093Z,4.51
2022-08-20T04:07:25.582Z,4.75
2022-08-20T04:08:28.323Z,4.49
2022-08-20T04:09:30.784Z,5.02
2022-08-20T04:10:35.254Z,4.41
2022-08-20T04:11:37.861Z,4.14
2022-08-20T04:12:40.426Z,4.24
2022-08-20T04:13:44.617Z,4.89
2022-08-20T04:14:47.663Z,4.85
2022-08-20T04:15:50.254Z,4.57
2022-08-20T04:16:53.638Z,4.33
2022-08-20T04:17:56.163Z,3.86
2022-08-20T04:19:02.208Z,4.75
2022-08-20T04:20:04.296Z,3.79
2022-08-20T04:21:06.866Z,3.66
2022-08-20T04:22:10.025Z,3.71
2022-08-20T04:23:12.589Z,3.82
2022-08-20T04:24:24.486Z,3.84
2022-08-20T04:25:19.575Z,3.86
2022-08-20T04:26:24.649Z,4.20
2022-08-20T04:27:27.230Z,3.57
2022-08-20T04:28:29.820Z,4.35
2022-08-20T04:29:32.795Z,3.87
2022-08-20T04:30:36.664Z,4.05
2022-08-20T04:31:39.238Z,3.98
2022-08-20T04:32:41.923Z,3.82
2022-08-20T04:33:46.013Z,4.34
2022-08-20T04:34:48.492Z,3.85
2022-08-20T04:35:51.167Z,3.41
2022-08-20T04:36:53.945Z,4.02
2022-08-20T04:37:57.424Z,4.06
2022-08-20T04:39:00.585Z,4.08
2022-08-20T04:41:21.037Z,3.66
2022-08-20T04:42:19.543Z,3.64
2022-08-20T04:43:22.499Z,3.41
2022-08-20T04:44:25.399Z,3.27
2022-08-20T04:45:27.984Z,3.25
2022-08-20T04:46:32.363Z,3.50
2022-08-20T04:47:35.052Z,3.56
2022-08-20T04:48:37.678Z,3.75
2022-08-20T04:49:41.961Z,3.44
2022-08-20T04:50:44.832Z,3.45
2022-08-20T04:51:47.398Z,3.35
2022-08-20T04:52:49.871Z,3.77
2022-08-20T04:53:53.484Z,3.32
2022-08-20T04:54:56.328Z,3.78
2022-08-20T04:55:59.381Z,3.26
2022-08-20T04:57:02.696Z,3.66
2022-08-20T04:58:05.634Z,3.71
2022-08-20T04:59:08.093Z,3.59
2022-08-20T05:00:14.183Z,3.68
2022-08-20T05:01:16.825Z,3.41
2022-08-20T05:02:19.850Z,3.59
2022-08-20T05:03:22.601Z,3.51
2022-08-20T05:04:25.597Z,3.81
2022-08-20T05:05:28.194Z,3.66
2022-08-20T05:06:31.672Z,3.89
2022-08-20T05:07:38.384Z,3.59
2022-08-20T05:08:40.921Z,3.67
2022-08-20T05:09:43.837Z,3.51
2022-08-20T05:10:47.191Z,3.42
2022-08-20T05:11:49.764Z,3.87
2022-08-20T05:12:56.957Z,3.06
2022-08-20T05:13:56.585Z,2.97
2022-08-20T05:14:59.087Z,3.27
2022-08-20T05:16:01.830Z,3.43
2022-08-20T05:17:04.727Z,3.09
2022-08-20T05:18:07.377Z,2.86
2022-08-20T05:19:12.870Z,2.99
2022-08-20T05:20:16.545Z,3.09
2022-08-20T05:21:19.826Z,3.19
2022-08-20T05:22:22.398Z,3.11
2022-08-20T05:23:24.969Z,3.24
2022-08-20T05:24:27.631Z,3.25
2022-08-20T05:25:30.194Z,3.28
2022-08-20T05:26:33.969Z,3.24
2022-08-20T05:27:36.522Z,3.18
2022-08-20T05:28:53.920Z,3.01
2022-08-20T05:29:43.575Z,3.16
2022-08-20T05:30:47.691Z,3.04
2022-08-20T05:31:52.124Z,2.81
2022-08-20T05:32:54.628Z,3.31
2022-08-20T05:33:57.136Z,2.95
2022-08-20T05:34:59.702Z,3.71
2022-08-20T05:36:02.278Z,3.07
2022-08-20T05:37:04.857Z,3.25
2022-08-20T05:38:10.027Z,3.07
2022-08-20T05:39:12.809Z,2.89
2022-08-20T05:40:17.250Z,2.85
2022-08-20T05:41:27.715Z,2.78
2022-08-20T05:42:25.384Z,2.94
2022-08-20T05:43:28.047Z,2.99
2022-08-20T05:44:30.636Z,3.14
2022-08-20T05:45:33.463Z,3.24
2022-08-20T05:46:36.227Z,2.78
2022-08-20T05:47:42.840Z,2.81
2022-08-20T05:48:45.347Z,2.86
2022-08-20T05:49:47.837Z,2.84
2022-08-20T05:50:50.922Z,2.74
2022-08-20T05:51:53.429Z,2.98
2022-08-20T05:52:55.973Z,2.19
2022-08-20T05:53:59.510Z,2.63
2022-08-20T05:55:03.873Z,2.41
2022-08-20T05:56:06.937Z,2.09
2022-08-20T05:57:09.501Z,2.82
2022-08-20T05:59:27.401Z,2.45
2022-08-20T06:00:31.187Z,2.22
2022-08-20T06:01:34.431Z,2.63
2022-08-20T06:02:37.542Z,2.43
2022-08-20T06:03:40.014Z,2.62
2022-08-20T06:04:42.570Z,2.51
2022-08-20T06:05:45.137Z,2.30
2022-08-20T06:06:48.105Z,2.55
2022-08-20T06:07:50.621Z,2.71
2022-08-20T06:08:53.134Z,2.42
2022-08-20T06:09:55.720Z,2.69
2022-08-20T06:10:58.624Z,2.63
2022-08-20T06:12:01.594Z,3.03
2022-08-20T06:13:04.160Z,3.39
2022-08-20T06:14:06.684Z,2.86
2022-08-20T06:15:09.555Z,2.88
2022-08-20T06:16:13.956Z,3.72
2022-08-20T06:17:17.220Z,3.06
2022-08-20T06:18:28.311Z,2.77
2022-08-20T06:19:26.184Z,3.30
2022-08-20T06:20:28.827Z,2.63
2022-08-20T06:21:31.389Z,2.62
2022-08-20T06:22:34.241Z,2.61
2022-08-20T06:23:56.513Z,2.66
2022-08-20T06:24:41.881Z,2.49
2022-08-20T06:25:44.347Z,1.99
2022-08-20T06:26:46.988Z,2.08
2022-08-20T06:27:49.610Z,2.39
2022-08-20T06:28:54.197Z,2.25
2022-08-20T06:29:56.680Z,2.51
2022-08-20T06:30:59.342Z,2.12
2022-08-20T06:32:01.915Z,2.19
2022-08-20T06:33:04.400Z,2.07
2022-08-20T06:34:06.975Z,1.93
2022-08-20T06:35:11.077Z,11.15
2022-08-20T06:36:15.449Z,3.17
2022-08-20T06:37:31.175Z,6.05
2022-08-20T06:38:28.572Z,4.57
2022-08-20T06:39:31.130Z,2.43
2022-08-20T06:40:34.851Z,3.87
2022-08-20T06:41:37.522Z,3.03
2022-08-20T06:42:42.434Z,3.96
2022-08-20T06:43:44.461Z,2.69
2022-08-20T06:45:59.318Z,3.61
2022-08-20T06:47:02.633Z,3.61
2022-08-20T06:48:06.992Z,1.91
2022-08-20T06:49:09.606Z,2.46
2022-08-20T06:50:15.388Z,2.61
2022-08-20T06:51:17.962Z,2.17
2022-08-20T06:52:20.666Z,2.36
2022-08-20T06:53:25.083Z,2.79
2022-08-20T06:54:29.240Z,2.59
2022-08-20T06:55:32.140Z,2.19
2022-08-20T06:56:35.101Z,1.93
2022-08-20T06:57:37.779Z,2.69
2022-08-20T06:58:40.455Z,2.57
2022-08-20T06:59:42.923Z,1.99
2022-08-20T07:00:45.631Z,1.69
2022-08-20T07:01:48.236Z,1.79
2022-08-20T07:02:50.823Z,1.97
2022-08-20T07:03:54.625Z,2.45
2022-08-20T07:05:00.898Z,1.74
2022-08-20T07:06:03.548Z,1.86
2022-08-20T07:07:06.004Z,1.63
2022-08-20T07:08:12.334Z,3.63
2022-08-20T07:09:14.921Z,3.14
2022-08-20T07:10:18.003Z,2.56
2022-08-20T07:11:23.750Z,4.45
2022-08-20T07:12:25.146Z,7.60
2022-08-20T07:13:27.897Z,2.80
2022-08-20T07:14:31.594Z,2.90
2022-08-20T07:15:34.753Z,2.81
2022-08-20T07:16:37.625Z,2.94
2022-08-20T07:17:40.131Z,1.91
2022-08-20T07:18:42.580Z,1.88
2022-08-20T07:19:45.053Z,2.72
2022-08-20T07:20:48.014Z,2.19
2022-08-20T07:21:50.492Z,1.73
2022-08-20T07:22:53.212Z,2.12
2022-08-20T07:23:55.819Z,2.31
2022-08-20T07:24:58.311Z,2.04
2022-08-20T07:26:02.806Z,1.61
2022-08-20T07:27:05.278Z,2.05
2022-08-20T07:28:15.327Z,2.23
2022-08-20T07:29:21.721Z,2.06
2022-08-20T07:30:24.805Z,2.55
2022-08-20T07:31:27.477Z,2.86
2022-08-20T07:32:31.741Z,2.86
2022-08-20T07:33:36.239Z,2.30
2022-08-20T07:34:38.956Z,1.52
2022-08-20T07:35:43.472Z,1.53
2022-08-20T07:36:46.140Z,1.61
2022-08-20T07:37:49.203Z,1.60
2022-08-20T07:38:51.721Z,1.77
2022-08-20T07:39:54.321Z,2.10
2022-08-20T07:40:58.252Z,2.04
2022-08-20T07:42:00.839Z,1.85
2022-08-20T07:43:03.410Z,2.42
2022-08-20T07:44:06.080Z,2.11
2022-08-20T07:45:09.440Z,1.59
2022-08-20T07:46:14.481Z,1.80
2022-08-20T07:47:18.185Z,1.71
2022-08-20T07:48:27.929Z,1.38
2022-08-20T07:49:25.588Z,1.69
2022-08-20T07:50:28.686Z,1.62
2022-08-20T07:51:31.297Z,2.03
2022-08-20T07:52:33.871Z,1.98
2022-08-20T07:53:36.559Z,2.09
2022-08-20T07:54:39.428Z,1.94
2022-08-20T07:55:42.001Z,2.20
2022-08-20T07:56:48.441Z,2.24
2022-08-20T07:57:51.121Z,2.25
2022-08-20T07:58:54.085Z,2.24
2022-08-20T07:59:56.645Z,2.19
2022-08-20T08:01:01.354Z,2.14
2022-08-20T08:02:06.463Z,2.21
2022-08-20T08:03:09.103Z,1.68
2022-08-20T08:04:11.584Z,2.00
2022-08-20T08:05:14.714Z,1.50
2022-08-20T08:06:30.514Z,1.53
2022-08-20T08:07:25.069Z,2.16
2022-08-20T08:08:27.513Z,2.18
2022-08-20T08:09:30.074Z,1.70
2022-08-20T08:12:57.472Z,2.51
2022-08-20T08:14:00.151Z,2.67
2022-08-20T08:15:03.505Z,2.59
2022-08-20T08:16:06.883Z,2.19
2022-08-20T08:17:09.365Z,2.45
2022-08-20T08:18:13.634Z,2.38
2022-08-20T08:19:17.429Z,2.32
2022-08-20T08:20:21.130Z,2.16
2022-08-20T08:21:24.047Z,2.11
2022-08-20T08:22:26.710Z,0.99
2022-08-20T08:23:31.752Z,1.24
2022-08-20T08:24:34.155Z,1.59
2022-08-20T08:25:37.463Z,1.55
2022-08-20T08:26:40.419Z,1.81
2022-08-20T08:27:43.365Z,2.00
2022-08-20T08:28:45.833Z,1.58
2022-08-20T08:29:48.297Z,1.35
2022-08-20T08:30:52.967Z,1.74
2022-08-20T08:31:55.834Z,1.56
2022-08-20T08:32:58.421Z,1.46
2022-08-20T08:34:00.973Z,1.80
2022-08-20T08:35:04.130Z,1.81
2022-08-20T08:36:08.130Z,1.81
2022-08-20T08:37:10.798Z,2.22
2022-08-20T08:38:14.256Z,1.67
2022-08-20T08:39:17.262Z,2.09
2022-08-20T08:40:21.011Z,2.13
2022-08-20T08:41:25.472Z,2.20
2022-08-20T08:42:29.929Z,2.33
2022-08-20T08:43:32.602Z,2.02
2022-08-20T08:44:36.922Z,2.02
2022-08-20T08:45:40.602Z,1.95
2022-08-20T08:46:44.632Z,1.62
2022-08-20T08:47:47.186Z,1.81
2022-08-20T08:48:50.326Z,2.05
2022-08-20T08:49:52.776Z,1.62
2022-08-20T08:50:55.431Z,1.87
2022-08-20T08:51:59.629Z,2.05
2022-08-20T08:53:02.299Z,1.74
2022-08-20T08:54:07.214Z,1.46
2022-08-20T08:55:10.176Z,1.75
2022-08-20T08:56:14.065Z,1.56
2022-08-20T08:57:16.761Z,1.75
2022-08-20T08:58:19.638Z,1.62
2022-08-20T08:59:22.214Z,1.38
2022-08-20T09:00:26.114Z,1.63
2022-08-20T09:01:55.360Z,1.48
2022-08-20T09:02:33.179Z,1.54
2022-08-20T09:03:36.210Z,1.94
2022-08-20T09:04:39.288Z,1.26
2022-08-20T09:05:48.879Z,1.60
2022-08-20T09:06:52.384Z,1.45
2022-08-20T09:07:55.076Z,1.56
2022-08-20T09:08:58.757Z,1.55
2022-08-20T09:10:01.535Z,1.43
2022-08-20T09:11:04.840Z,1.76
2022-08-20T09:12:08.611Z,1.46
2022-08-20T09:13:11.494Z,2.01
2022-08-20T09:14:13.954Z,2.08
2022-08-20T09:15:17.106Z,2.14
2022-08-20T09:16:20.723Z,1.64
2022-08-20T09:17:23.188Z,1.52
2022-08-20T09:18:25.749Z,1.49
2022-08-20T09:19:28.327Z,1.53
2022-08-20T09:20:32.985Z,1.41
2022-08-20T09:21:35.549Z,1.40
2022-08-20T09:22:38.697Z,1.49
2022-08-20T09:23:41.304Z,1.41
2022-08-20T09:24:43.954Z,1.30
2022-08-20T09:25:46.426Z,1.71
2022-08-20T09:26:49.174Z,1.67
2022-08-20T09:27:51.640Z,1.49
2022-08-20T09:28:54.188Z,1.60
2022-08-20T09:29:56.866Z,1.53
2022-08-20T09:30:59.724Z,1.34
2022-08-20T09:32:07.194Z,1.57
2022-08-20T09:33:09.790Z,1.50
2022-08-20T09:34:12.546Z,1.37
2022-08-20T09:35:15.081Z,1.28
2022-08-20T09:36:32.417Z,1.37
2022-08-20T09:37:26.253Z,1.73
2022-08-20T09:38:28.939Z,2.26
2022-08-20T09:39:31.864Z,1.88
2022-08-20T09:40:35.478Z,2.09
2022-08-20T09:41:38.341Z,1.99
2022-08-20T09:42:41.800Z,1.78
2022-08-20T09:43:44.551Z,2.43
2022-08-20T09:44:47.243Z,1.93
2022-08-20T09:45:49.734Z,1.76
2022-08-20T09:46:52.917Z,1.94
2022-08-20T09:47:56.891Z,1.56
2022-08-20T09:48:59.961Z,2.70
2022-08-20T09:50:02.957Z,2.42
2022-08-20T09:51:05.713Z,2.02
2022-08-20T09:52:09.118Z,1.93
2022-08-20T09:53:11.591Z,1.56
2022-08-20T09:54:14.246Z,1.63
2022-08-20T09:55:27.745Z,1.77
2022-08-20T09:56:30.634Z,1.47
2022-08-20T09:57:33.239Z,1.76
2022-08-20T09:58:36.910Z,1.75
2022-08-20T09:59:39.446Z,1.36
2022-08-20T10:00:42.518Z,1.49
2022-08-20T10:01:45.247Z,1.78
2022-08-20T10:02:47.844Z,1.57
2022-08-20T10:03:50.551Z,1.80
2022-08-20T10:04:53.205Z,1.42
2022-08-20T10:05:55.761Z,1.46
2022-08-20T10:06:58.509Z,1.40
2022-08-20T10:08:02.928Z,1.56
2022-08-20T10:09:05.549Z,1.46
2022-08-20T10:10:10.274Z,1.63
2022-08-20T10:11:12.862Z,1.69
2022-08-20T10:12:15.609Z,1.86
2022-08-20T10:13:18.175Z,1.68
2022-08-20T10:14:20.753Z,1.73
2022-08-20T10:15:23.325Z,1.48
2022-08-20T10:16:26.468Z,1.49
2022-08-20T10:17:29.029Z,1.33
2022-08-20T10:18:31.578Z,1.64
2022-08-20T10:19:34.234Z,1.65
2022-08-20T10:20:37.397Z,1.74
2022-08-20T10:21:40.527Z,1.59
2022-08-20T10:22:43.199Z,1.91
2022-08-20T10:23:45.980Z,1.94
2022-08-20T10:24:48.522Z,1.87
2022-08-20T10:25:51.088Z,1.51
2022-08-20T10:26:54.748Z,2.17
2022-08-20T10:27:57.456Z,4.75
2022-08-20T10:29:00.173Z,4.86
2022-08-20T10:30:03.879Z,3.88
2022-08-20T10:31:06.837Z,3.33
2022-08-20T10:32:11.457Z,2.76
2022-08-20T10:33:14.020Z,3.20
2022-08-20T10:34:16.579Z,1.66
2022-08-20T10:35:19.257Z,1.63
2022-08-20T10:36:23.629Z,1.39
2022-08-20T10:37:26.303Z,1.79
2022-08-20T10:38:28.874Z,1.46
2022-08-20T10:39:31.642Z,1.67
2022-08-20T10:40:34.631Z,1.53
2022-08-20T10:41:39.139Z,1.57
2022-08-20T10:42:44.913Z,1.55
2022-08-20T10:43:47.613Z,1.21
2022-08-20T10:44:50.177Z,1.81
2022-08-20T10:45:52.828Z,1.53
2022-08-20T10:46:57.239Z,1.64
2022-08-20T10:47:59.894Z,1.72
2022-08-20T10:49:02.571Z,1.66
2022-08-20T10:50:06.048Z,1.49
2022-08-20T10:51:08.545Z,1.50
2022-08-20T10:52:11.135Z,1.85
2022-08-20T10:53:13.795Z,1.62
2022-08-20T10:54:16.336Z,1.48
2022-08-20T10:55:18.895Z,1.67
2022-08-20T10:56:22.460Z,1.92
2022-08-20T10:57:26.334Z,2.21
2022-08-20T10:58:37.541Z,2.20
2022-08-20T10:59:35.469Z,2.15
2022-08-20T11:00:39.740Z,2.41
2022-08-20T11:01:42.289Z,2.03
2022-08-20T11:02:44.990Z,2.46
2022-08-20T11:03:47.548Z,2.10
2022-08-20T11:04:50.192Z,2.14
2022-08-20T11:05:52.842Z,1.93
2022-08-20T11:06:55.490Z,2.06
2022-08-20T11:07:58.157Z,2.01
2022-08-20T11:09:00.692Z,2.02
2022-08-20T11:10:04.437Z,1.99
2022-08-20T11:11:07.205Z,2.27
2022-08-20T11:12:09.753Z,1.85
2022-08-20T11:13:12.437Z,1.76
2022-08-20T11:14:15.006Z,1.85
2022-08-20T11:15:17.728Z,1.66
2022-08-20T11:16:21.785Z,1.52
2022-08-20T11:17:26.450Z,1.69
2022-08-20T11:18:29.118Z,1.36
2022-08-20T11:19:31.662Z,1.38
2022-08-20T11:20:34.804Z,1.64
2022-08-20T11:21:37.358Z,1.35
2022-08-20T11:22:39.922Z,1.19
2022-08-20T11:23:42.482Z,1.53
2022-08-20T11:24:45.037Z,1.39
2022-08-20T11:25:49.598Z,1.92
2022-08-20T11:26:53.456Z,1.64
2022-08-20T11:27:56.226Z,1.75
2022-08-20T11:28:58.706Z,2.03
2022-08-20T11:30:01.371Z,1.49
2022-08-20T11:31:04.028Z,1.57
2022-08-20T11:32:06.706Z,1.56
2022-08-20T11:33:09.571Z,1.89
2022-08-20T11:34:12.857Z,1.81
2022-08-20T11:35:41.031Z,1.94
2022-08-20T11:36:21.249Z,2.20
2022-08-20T11:37:23.808Z,1.94
2022-08-20T11:38:26.383Z,1.73
2022-08-20T11:39:28.945Z,2.06
2022-08-20T11:40:32.270Z,1.79
2022-08-20T11:41:34.932Z,1.83
2022-08-20T11:42:53.238Z,2.15
2022-08-20T11:43:51.146Z,1.67
2022-08-20T11:44:46.492Z,1.75
2022-08-20T11:45:49.562Z,1.80
2022-08-20T11:46:52.213Z,1.92
2022-08-20T11:47:54.673Z,1.85
2022-08-20T11:48:57.348Z,1.73
2022-08-20T11:50:00.739Z,1.92
2022-08-20T11:51:03.458Z,2.31
2022-08-20T11:52:05.999Z,2.38
2022-08-20T11:53:08.566Z,2.02
2022-08-20T11:54:11.113Z,2.25
2022-08-20T11:55:14.650Z,2.12
2022-08-20T11:56:18.843Z,1.99
2022-08-20T11:57:22.426Z,1.81
2022-08-20T11:58:25.001Z,1.61
2022-08-20T11:59:27.705Z,1.51
2022-08-20T12:00:33.127Z,1.57
2022-08-20T12:01:35.534Z,1.45
2022-08-20T12:02:38.132Z,1.82
2022-08-20T12:03:40.673Z,1.96
2022-08-20T12:04:43.308Z,1.51
2022-08-20T12:05:45.776Z,1.81
2022-08-20T12:06:49.338Z,1.76
2022-08-20T12:07:51.908Z,1.77
2022-08-20T12:08:54.467Z,1.68
2022-08-20T12:09:57.031Z,1.40
2022-08-20T12:11:00.503Z,1.84
2022-08-20T12:12:03.552Z,1.62
2022-08-20T12:13:06.413Z,1.69
2022-08-20T12:14:08.981Z,1.95
2022-08-20T12:15:11.636Z,1.80
2022-08-20T12:16:15.258Z,1.73
2022-08-20T12:17:19.123Z,1.64
2022-08-20T12:18:21.688Z,1.88
2022-08-20T12:19:27.054Z,1.79
2022-08-20T12:20:30.547Z,1.85
2022-08-20T12:21:33.245Z,1.84
2022-08-20T12:22:35.922Z,1.91
2022-08-20T12:23:38.477Z,1.83
2022-08-20T12:24:41.046Z,1.62
2022-08-20T12:25:43.709Z,1.59
2022-08-20T12:26:47.274Z,1.47
2022-08-20T12:27:49.830Z,1.49
2022-08-20T12:28:52.404Z,1.60
2022-08-20T12:29:55.692Z,1.91
2022-08-20T12:30:58.494Z,1.61
2022-08-20T12:32:01.054Z,2.08
2022-08-20T12:33:03.634Z,1.93
2022-08-20T12:34:06.672Z,1.91
2022-08-20T12:35:09.418Z,2.00
2022-08-20T12:36:13.219Z,1.86
2022-08-20T12:37:16.585Z,1.95
2022-08-20T12:38:19.269Z,1.92
2022-08-20T12:39:21.925Z,1.74
2022-08-20T12:40:32.577Z,1.73
2022-08-20T12:41:31.301Z,1.56
2022-08-20T12:42:33.983Z,2.01
2022-08-20T12:43:36.633Z,1.82
2022-08-20T12:44:39.290Z,1.87
2022-08-20T12:45:41.818Z,1.48
2022-08-20T12:46:45.796Z,1.75
2022-08-20T12:47:48.343Z,1.67
2022-08-20T12:48:51.310Z,1.94
2022-08-20T12:49:54.868Z,1.61
2022-08-20T12:50:57.633Z,1.82
2022-08-20T12:52:00.095Z,1.58
2022-08-20T12:53:02.630Z,1.74
2022-08-20T12:54:05.091Z,1.63
2022-08-20T12:55:09.753Z,1.69
2022-08-20T12:56:12.925Z,1.72
2022-08-20T12:57:22.684Z,1.66
2022-08-20T12:58:25.276Z,1.51
2022-08-20T12:59:27.866Z,1.65
2022-08-20T13:00:33.329Z,1.63
2022-08-20T13:01:36.034Z,1.74
2022-08-20T13:02:38.851Z,1.54
2022-08-20T13:03:45.322Z,1.63
2022-08-20T13:04:45.996Z,1.51
2022-08-20T13:05:48.961Z,1.77
2022-08-20T13:06:51.621Z,1.51
2022-08-20T13:07:54.290Z,1.71
2022-08-20T13:08:57.184Z,1.69
2022-08-20T13:09:59.629Z,1.84
2022-08-20T13:11:02.500Z,1.66
2022-08-20T13:12:05.314Z,1.72
2022-08-20T13:13:08.427Z,1.68
2022-08-20T13:14:11.081Z,1.75
2022-08-20T13:15:13.740Z,2.29
2022-08-20T13:16:16.620Z,1.87
2022-08-20T13:17:19.397Z,2.40
2022-08-20T13:18:23.812Z,2.16
2022-08-20T13:19:26.485Z,2.30
2022-08-20T13:20:34.058Z,2.63
2022-08-20T13:21:34.452Z,2.59
2022-08-20T13:22:37.630Z,2.74
2022-08-20T13:23:40.280Z,2.38
2022-08-20T13:24:43.162Z,2.54
2022-08-20T13:25:45.821Z,2.42
2022-08-20T13:26:48.676Z,2.20
2022-08-20T13:27:53.334Z,2.39
2022-08-20T13:28:55.921Z,2.45
2022-08-20T13:29:59.155Z,1.55
2022-08-20T13:31:02.288Z,1.82
2022-08-20T13:32:04.865Z,1.94
2022-08-20T13:33:07.438Z,2.03
2022-08-20T13:34:09.878Z,3.26
2022-08-20T13:35:12.575Z,2.42
2022-08-20T13:36:16.528Z,2.49
2022-08-20T13:38:31.029Z,2.21
2022-08-20T13:39:33.641Z,1.95
2022-08-20T13:40:37.177Z,2.13
2022-08-20T13:41:40.826Z,2.26
2022-08-20T13:42:43.502Z,2.81
2022-08-20T13:43:46.066Z,2.41
2022-08-20T13:44:48.637Z,2.63
2022-08-20T13:45:51.190Z,2.27
2022-08-20T13:46:54.454Z,2.62
2022-08-20T13:47:57.085Z,3.64
2022-08-20T13:48:59.949Z,2.50
2022-08-20T13:50:13.401Z,2.67
2022-08-20T13:51:16.004Z,2.73
2022-08-20T13:52:20.383Z,3.20
2022-08-20T13:53:24.149Z,3.07
2022-08-20T13:54:29.967Z,3.17
2022-08-20T13:55:31.089Z,2.95
2022-08-20T13:56:36.499Z,2.87
2022-08-20T13:57:39.215Z,2.65
2022-08-20T13:58:41.785Z,2.49
2022-08-20T13:59:45.038Z,2.52
2022-08-20T14:00:47.964Z,2.49
2022-08-20T14:01:50.636Z,2.51
2022-08-20T14:02:53.410Z,2.22
2022-08-20T14:03:56.022Z,2.35
2022-08-20T14:04:58.702Z,2.43
2022-08-20T14:06:01.954Z,2.41
2022-08-20T14:07:08.441Z,2.30
2022-08-20T14:09:33.105Z,2.47
2022-08-20T14:10:36.898Z,2.34
2022-08-20T14:11:39.661Z,1.98
2022-08-20T14:12:42.217Z,1.98
2022-08-20T14:13:44.672Z,2.27
2022-08-20T14:14:47.226Z,2.73
2022-08-20T14:15:49.982Z,2.45
2022-08-20T14:16:52.840Z,2.38
2022-08-20T14:17:55.890Z,2.52
2022-08-20T14:18:59.366Z,2.85
2022-08-20T14:20:03.877Z,2.65
2022-08-20T14:21:06.825Z,2.49
2022-08-20T14:22:09.424Z,2.37
2022-08-20T14:23:12.075Z,3.44